createdAt,value
2018-07-13T00:00:12.582Z,987.68
2018-07-13T00:01:12.793Z,987.66
2018-07-13T00:02:12.997Z,987.65
2018-07-13T00:03:13.189Z,987.65
2018-07-13T00:04:13.383Z,987.63
2018-07-13T00:05:13.571Z,987.68
2018-07-13T00:06:13.766Z,987.64
2018-07-13T00:07:13.977Z,987.63
2018-07-13T00:08:14.175Z,987.64
2018-07-13T00:09:14.396Z,987.65
2018-07-13T00:10:14.582Z,987.66
2018-07-13T00:11:14.796Z,987.66
2018-07-13T00:12:15.012Z,987.69
2018-07-13T00:13:15.213Z,987.66
2018-07-13T00:14:15.413Z,987.68
2018-07-13T00:15:15.630Z,987.69
2018-07-13T00:16:15.834Z,987.68
2018-07-13T00:17:16.048Z,987.69
2018-07-13T00:18:16.257Z,987.72
2018-07-13T00:19:16.442Z,987.74
2018-07-13T00:20:16.654Z,987.76
2018-07-13T00:21:16.847Z,987.82
2018-07-13T00:22:17.046Z,987.78
2018-07-13T00:23:17.249Z,987.77
2018-07-13T00:24:17.448Z,987.79
2018-07-13T00:25:17.636Z,987.80
2018-07-13T00:26:17.818Z,987.79
2018-07-13T00:27:18.018Z,987.80
2018-07-13T00:28:18.214Z,987.82
2018-07-13T00:29:18.417Z,987.79
2018-07-13T00:30:18.605Z,987.79
2018-07-13T00:31:18.814Z,987.82
2018-07-13T00:32:19.005Z,987.75
2018-07-13T00:33:19.215Z,987.77
2018-07-13T00:34:19.431Z,987.74
2018-07-13T00:35:19.628Z,987.75
2018-07-13T00:36:19.826Z,987.75
2018-07-13T00:37:20.008Z,987.73
2018-07-13T00:38:20.221Z,987.72
2018-07-13T00:39:20.405Z,987.74
2018-07-13T00:40:20.592Z,987.73
2018-07-13T00:41:20.806Z,987.77
2018-07-13T00:42:21.026Z,987.74
2018-07-13T00:43:21.235Z,987.72
2018-07-13T00:44:21.445Z,987.77
2018-07-13T00:45:21.631Z,987.78
2018-07-13T00:46:21.846Z,987.77
2018-07-13T00:47:22.064Z,987.77
2018-07-13T00:48:22.264Z,987.79
2018-07-13T00:49:22.467Z,987.81
2018-07-13T00:50:22.679Z,987.80
2018-07-13T00:51:22.894Z,987.79
2018-07-13T00:52:23.098Z,987.78
2018-07-13T00:53:23.296Z,987.79
2018-07-13T00:54:23.489Z,987.81
2018-07-13T00:55:23.678Z,987.80
2018-07-13T00:56:23.873Z,987.77
2018-07-13T00:57:24.088Z,987.80
2018-07-13T00:58:24.284Z,987.78
2018-07-13T00:59:24.484Z,987.80
2018-07-13T01:01:56.620Z,987.84
2018-07-13T01:02:56.808Z,987.86
2018-07-13T01:03:56.993Z,987.86
2018-07-13T01:04:57.197Z,987.88
2018-07-13T01:05:57.390Z,987.82
2018-07-13T01:06:57.592Z,987.83
2018-07-13T01:07:57.795Z,987.81
2018-07-13T01:08:58.000Z,987.80
2018-07-13T01:09:58.198Z,987.78
2018-07-13T01:10:58.393Z,987.79
2018-07-13T01:11:58.590Z,987.81
2018-07-13T01:12:58.795Z,987.75
2018-07-13T01:15:30.661Z,987.73
2018-07-13T01:16:30.837Z,987.76
2018-07-13T01:17:31.042Z,987.76
2018-07-13T01:18:31.241Z,987.73
2018-07-13T01:19:31.447Z,987.75
2018-07-13T01:20:31.645Z,987.74
2018-07-13T01:21:31.846Z,987.79
2018-07-13T01:22:32.080Z,987.75
2018-07-13T01:23:32.290Z,987.75
2018-07-13T01:24:32.496Z,987.79
2018-07-13T01:25:32.692Z,987.76
2018-07-13T01:26:32.892Z,987.73
2018-07-13T01:27:33.089Z,987.76
2018-07-13T01:28:33.292Z,987.80
2018-07-13T01:29:33.509Z,987.79
2018-07-13T01:30:33.704Z,987.83
2018-07-13T01:31:33.904Z,987.84
2018-07-13T01:32:34.115Z,987.84
2018-07-13T01:33:34.330Z,987.84
2018-07-13T01:34:34.535Z,987.83
2018-07-13T01:35:34.744Z,987.83
2018-07-13T01:36:34.959Z,987.87
2018-07-13T01:37:35.157Z,987.85
2018-07-13T01:38:35.352Z,987.84
2018-07-13T01:39:35.568Z,987.81
2018-07-13T01:40:35.774Z,987.80
2018-07-13T01:41:35.992Z,987.84
2018-07-13T01:42:36.178Z,987.85
2018-07-13T01:43:36.365Z,987.85
2018-07-13T01:44:36.558Z,987.83
2018-07-13T01:45:36.760Z,987.84
2018-07-13T01:46:36.970Z,987.84
2018-07-13T01:47:37.153Z,987.84
2018-07-13T01:48:37.341Z,987.88
2018-07-13T01:49:37.554Z,987.85
2018-07-13T01:50:37.754Z,987.84
2018-07-13T01:51:37.943Z,987.84
2018-07-13T01:52:38.146Z,987.82
2018-07-13T01:53:38.362Z,987.78
2018-07-13T01:54:38.556Z,987.82
2018-07-13T01:55:38.786Z,987.81
2018-07-13T01:56:38.965Z,987.78
2018-07-13T01:57:39.179Z,987.84
2018-07-13T01:58:39.382Z,987.82
2018-07-13T01:59:39.573Z,987.84
2018-07-13T02:00:39.768Z,987.86
2018-07-13T02:01:39.959Z,987.87
2018-07-13T02:02:40.159Z,987.87
2018-07-13T02:03:40.351Z,987.86
2018-07-13T02:04:40.544Z,987.83
2018-07-13T02:05:40.736Z,987.85
2018-07-13T02:06:40.924Z,987.86
2018-07-13T02:07:41.126Z,987.82
2018-07-13T02:08:41.321Z,987.89
2018-07-13T02:09:41.517Z,987.88
2018-07-13T02:10:41.704Z,987.88
2018-07-13T02:11:41.901Z,987.91
2018-07-13T02:12:42.116Z,987.89
2018-07-13T02:13:42.337Z,987.90
2018-07-13T02:14:42.539Z,987.89
2018-07-13T02:15:42.747Z,987.91
2018-07-13T02:16:42.952Z,987.91
2018-07-13T02:17:43.133Z,987.90
2018-07-13T02:18:43.334Z,987.92
2018-07-13T02:19:43.545Z,987.92
2018-07-13T02:20:43.756Z,987.92
2018-07-13T02:21:43.944Z,987.92
2018-07-13T02:22:44.148Z,987.97
2018-07-13T02:23:44.346Z,987.94
2018-07-13T02:24:44.558Z,987.94
2018-07-13T02:25:44.772Z,987.94
2018-07-13T02:26:44.958Z,987.96
2018-07-13T02:27:45.171Z,987.96
2018-07-13T02:28:45.351Z,987.98
2018-07-13T02:29:45.538Z,987.97
2018-07-13T02:30:45.741Z,987.95
2018-07-13T02:31:45.960Z,987.96
2018-07-13T02:32:46.138Z,987.97
2018-07-13T02:33:46.399Z,987.94
2018-07-13T02:34:46.530Z,987.94
2018-07-13T02:35:46.798Z,987.97
2018-07-13T02:36:46.887Z,987.99
2018-07-13T02:37:47.095Z,987.96
2018-07-13T02:38:47.284Z,987.95
2018-07-13T02:39:47.500Z,987.97
2018-07-13T02:40:47.692Z,987.97
2018-07-13T02:41:47.879Z,988.00
2018-07-13T02:42:48.073Z,988.02
2018-07-13T02:43:48.269Z,987.99
2018-07-13T02:44:48.483Z,988.03
2018-07-13T02:45:48.684Z,988.03
2018-07-13T02:46:48.875Z,988.03
2018-07-13T02:47:49.093Z,988.01
2018-07-13T02:48:49.297Z,988.07
2018-07-13T02:49:49.496Z,988.02
2018-07-13T02:50:49.682Z,988.04
2018-07-13T02:51:49.862Z,988.05
2018-07-13T02:52:50.071Z,988.08
2018-07-13T02:53:50.262Z,988.06
2018-07-13T02:54:50.476Z,988.11
2018-07-13T02:57:22.621Z,988.12
2018-07-13T02:58:22.793Z,988.13
2018-07-13T02:59:22.977Z,988.11
2018-07-13T03:00:23.165Z,988.11
2018-07-13T03:01:23.363Z,988.16
2018-07-13T03:02:23.553Z,988.15
2018-07-13T03:03:23.762Z,988.17
2018-07-13T03:04:23.970Z,988.17
2018-07-13T03:05:24.172Z,988.15
2018-07-13T03:06:24.372Z,988.17
2018-07-13T03:07:24.562Z,988.19
2018-07-13T03:08:24.740Z,988.20
2018-07-13T03:09:24.950Z,988.22
2018-07-13T03:10:25.138Z,988.23
2018-07-13T03:11:25.334Z,988.24
2018-07-13T03:12:25.524Z,988.25
2018-07-13T03:13:25.719Z,988.25
2018-07-13T03:14:25.921Z,988.25
2018-07-13T03:15:26.094Z,988.27
2018-07-13T03:16:26.297Z,988.26
2018-07-13T03:17:26.675Z,988.28
2018-07-13T03:18:26.673Z,988.30
2018-07-13T03:19:26.875Z,988.30
2018-07-13T03:20:27.094Z,988.29
2018-07-13T03:21:27.280Z,988.30
2018-07-13T03:22:27.493Z,988.28
2018-07-13T03:23:27.687Z,988.28
2018-07-13T03:24:27.980Z,988.29
2018-07-13T03:25:28.043Z,988.29
2018-07-13T03:26:28.230Z,988.32
2018-07-13T03:27:28.435Z,988.30
2018-07-13T03:28:28.626Z,988.31
2018-07-13T03:29:28.833Z,988.35
2018-07-13T03:30:29.054Z,988.33
2018-07-13T03:31:29.245Z,988.35
2018-07-13T03:32:29.459Z,988.37
2018-07-13T03:33:29.649Z,988.36
2018-07-13T03:34:29.834Z,988.39
2018-07-13T03:35:30.092Z,988.38
2018-07-13T03:36:30.173Z,988.38
2018-07-13T03:37:30.357Z,988.43
2018-07-13T03:38:30.636Z,988.42
2018-07-13T03:39:30.779Z,988.45
2018-07-13T03:40:30.964Z,988.42
2018-07-13T03:41:31.190Z,988.46
2018-07-13T03:42:31.373Z,988.44
2018-07-13T03:43:31.578Z,988.44
2018-07-13T03:44:31.765Z,988.44
2018-07-13T03:45:31.964Z,988.45
2018-07-13T03:46:32.155Z,988.46
2018-07-13T03:47:32.353Z,988.46
2018-07-13T03:48:32.545Z,988.49
2018-07-13T03:49:32.750Z,988.47
2018-07-13T03:50:32.953Z,988.53
2018-07-13T03:51:33.167Z,988.53
2018-07-13T03:52:33.372Z,988.50
2018-07-13T03:53:33.572Z,988.48
2018-07-13T03:54:33.761Z,988.47
2018-07-13T03:55:33.969Z,988.49
2018-07-13T03:56:34.236Z,988.51
2018-07-13T03:57:34.295Z,988.46
2018-07-13T03:58:34.496Z,988.49
2018-07-13T03:59:34.713Z,988.51
2018-07-13T04:00:34.985Z,988.54
2018-07-13T04:01:35.112Z,988.56
2018-07-13T04:02:35.303Z,988.52
2018-07-13T04:03:35.736Z,988.55
2018-07-13T04:04:35.714Z,988.54
2018-07-13T04:05:35.903Z,988.55
2018-07-13T04:06:36.261Z,988.53
2018-07-13T04:07:36.299Z,988.56
2018-07-13T04:08:36.504Z,988.54
2018-07-13T04:09:36.698Z,988.52
2018-07-13T04:10:36.913Z,988.50
2018-07-13T04:11:37.121Z,988.50
2018-07-13T04:12:37.314Z,988.55
2018-07-13T04:13:37.521Z,988.55
2018-07-13T04:14:37.747Z,988.55
2018-07-13T04:15:37.898Z,988.56
2018-07-13T04:16:38.086Z,988.57
2018-07-13T04:17:38.295Z,988.58
2018-07-13T04:18:38.503Z,988.59
2018-07-13T04:19:38.688Z,988.59
2018-07-13T04:20:38.878Z,988.58
2018-07-13T04:21:39.083Z,988.60
2018-07-13T04:22:39.276Z,988.57
2018-07-13T04:23:39.468Z,988.63
2018-07-13T04:24:39.648Z,988.62
2018-07-13T04:25:39.837Z,988.64
2018-07-13T04:26:40.039Z,988.68
2018-07-13T04:27:40.244Z,988.67
2018-07-13T04:28:40.491Z,988.70
2018-07-13T04:29:40.650Z,988.71
2018-07-13T04:30:40.867Z,988.74
2018-07-13T04:31:41.059Z,988.75
2018-07-13T04:32:41.261Z,988.72
2018-07-13T04:33:41.478Z,988.74
2018-07-13T04:34:41.668Z,988.78
2018-07-13T04:35:41.857Z,988.73
2018-07-13T04:36:42.068Z,988.79
2018-07-13T04:37:42.249Z,988.79
2018-07-13T04:38:42.454Z,988.83
2018-07-13T04:39:42.658Z,988.87
2018-07-13T04:40:42.905Z,988.83
2018-07-13T04:41:43.074Z,988.87
2018-07-13T04:42:43.259Z,988.92
2018-07-13T04:43:43.476Z,988.90
2018-07-13T04:44:43.667Z,988.97
2018-07-13T04:45:43.857Z,988.98
2018-07-13T04:46:44.054Z,988.97
2018-07-13T04:47:44.255Z,988.99
2018-07-13T04:48:44.433Z,989.01
2018-07-13T04:49:44.620Z,989.01
2018-07-13T04:50:44.819Z,989.07
2018-07-13T04:51:45.009Z,989.09
2018-07-13T04:52:45.202Z,989.12
2018-07-13T04:53:45.406Z,989.22
2018-07-13T04:54:45.601Z,989.42
2018-07-13T04:55:45.815Z,989.73
2018-07-13T04:56:46.025Z,990.13
2018-07-13T04:57:46.237Z,990.44
2018-07-13T04:58:46.458Z,990.67
2018-07-13T04:59:46.640Z,991.00
2018-07-13T05:00:46.841Z,991.44
2018-07-13T05:01:47.096Z,991.85
2018-07-13T05:02:47.250Z,992.50
2018-07-13T05:03:47.454Z,992.98
2018-07-13T05:04:47.656Z,992.72
2018-07-13T05:05:47.859Z,991.86
2018-07-13T05:06:48.057Z,990.88
2018-07-13T05:09:20.201Z,990.40
2018-07-13T05:10:20.380Z,990.24
2018-07-13T05:11:20.584Z,990.20
2018-07-13T05:12:20.797Z,990.05
2018-07-13T05:13:21.020Z,989.85
2018-07-13T05:14:21.212Z,989.77
2018-07-13T05:15:21.424Z,989.81
2018-07-13T05:16:21.637Z,989.78
2018-07-13T05:17:21.819Z,989.74
2018-07-13T05:18:22.091Z,989.68
2018-07-13T05:19:22.182Z,989.70
2018-07-13T05:20:22.394Z,989.68
2018-07-13T05:21:22.654Z,989.69
2018-07-13T05:22:22.798Z,989.71
2018-07-13T05:23:22.999Z,989.61
2018-07-13T05:24:23.176Z,989.61
2018-07-13T05:25:23.381Z,989.60
2018-07-13T05:26:23.606Z,989.62
2018-07-13T05:27:23.807Z,989.63
2018-07-13T05:28:24.017Z,989.65
2018-07-13T05:29:24.272Z,989.66
2018-07-13T05:30:24.465Z,989.65
2018-07-13T05:31:24.655Z,989.69
2018-07-13T05:32:24.925Z,989.64
2018-07-13T05:33:25.103Z,989.58
2018-07-13T05:34:25.313Z,989.62
2018-07-13T05:35:25.536Z,989.74
2018-07-13T05:36:25.738Z,989.76
2018-07-13T05:37:25.949Z,989.73
2018-07-13T05:38:26.209Z,989.69
2018-07-13T05:39:26.371Z,989.69
2018-07-13T05:40:26.564Z,989.69
2018-07-13T05:41:26.783Z,989.63
2018-07-13T05:42:26.999Z,989.62
2018-07-13T05:43:27.196Z,989.60
2018-07-13T05:44:27.375Z,989.65
2018-07-13T05:45:27.571Z,989.65
2018-07-13T05:46:27.755Z,989.61
2018-07-13T05:47:27.971Z,989.59
2018-07-13T05:48:28.184Z,989.59
2018-07-13T05:49:28.400Z,989.58
2018-07-13T05:50:28.615Z,989.65
2018-07-13T05:51:28.826Z,989.62
2018-07-13T05:52:29.020Z,989.59
2018-07-13T05:53:29.246Z,989.63
2018-07-13T05:54:29.434Z,989.64
2018-07-13T05:55:29.629Z,989.67
2018-07-13T05:56:29.818Z,989.63
2018-07-13T05:57:30.037Z,989.64
2018-07-13T06:00:02.251Z,989.78
2018-07-13T06:01:02.433Z,989.89
2018-07-13T06:02:02.679Z,990.02
2018-07-13T06:03:02.880Z,990.12
2018-07-13T06:04:03.112Z,990.15
2018-07-13T06:05:03.300Z,990.17
2018-07-13T06:06:03.496Z,990.18
2018-07-13T06:07:03.722Z,990.17
2018-07-13T06:08:03.898Z,990.23
2018-07-13T06:09:04.157Z,990.24
2018-07-13T06:10:04.357Z,990.26
2018-07-13T06:11:04.578Z,990.30
2018-07-13T06:12:04.774Z,990.28
2018-07-13T06:13:04.995Z,990.28
2018-07-13T06:14:05.201Z,990.27
2018-07-13T06:15:05.475Z,990.29
2018-07-13T06:16:05.617Z,990.30
2018-07-13T06:17:05.833Z,990.30
2018-07-13T06:18:06.033Z,990.27
2018-07-13T06:19:06.241Z,990.34
2018-07-13T06:20:06.435Z,990.32
2018-07-13T06:21:06.656Z,990.33
2018-07-13T06:22:06.868Z,990.35
2018-07-13T06:24:39.044Z,990.30
2018-07-13T06:25:39.213Z,990.35
2018-07-13T06:26:39.405Z,990.30
2018-07-13T06:27:39.613Z,990.35
2018-07-13T06:28:39.821Z,990.35
2018-07-13T06:29:40.026Z,990.35
2018-07-13T06:30:40.309Z,990.34
2018-07-13T06:31:40.382Z,990.35
2018-07-13T06:32:40.657Z,990.36
2018-07-13T06:33:40.791Z,990.34
2018-07-13T06:34:41.029Z,990.34
2018-07-13T06:35:41.204Z,990.29
2018-07-13T06:36:41.424Z,990.29
2018-07-13T06:37:41.634Z,990.27
2018-07-13T06:38:41.840Z,990.26
2018-07-13T06:39:42.057Z,990.25
2018-07-13T06:40:42.282Z,990.32
2018-07-13T06:41:42.500Z,990.35
2018-07-13T06:42:42.695Z,990.36
2018-07-13T06:45:14.879Z,990.36
2018-07-13T06:46:15.059Z,990.37
2018-07-13T06:47:15.273Z,990.38
2018-07-13T06:48:15.490Z,990.42
2018-07-13T06:49:15.713Z,990.42
2018-07-13T06:50:15.900Z,990.41
2018-07-13T06:51:16.206Z,990.38
2018-07-13T06:52:16.326Z,990.37
2018-07-13T06:53:16.555Z,990.40
2018-07-13T06:54:16.769Z,990.43
2018-07-13T06:55:16.990Z,990.41
2018-07-13T06:56:17.202Z,990.39
2018-07-13T06:57:17.422Z,990.40
2018-07-13T06:58:17.627Z,990.41
2018-07-13T06:59:17.841Z,990.41
2018-07-13T07:00:18.054Z,990.39
2018-07-13T07:01:18.256Z,990.42
2018-07-13T07:02:18.455Z,990.39
2018-07-13T07:03:18.711Z,990.39
2018-07-13T07:04:18.915Z,990.41
2018-07-13T07:05:19.126Z,990.40
2018-07-13T07:06:19.343Z,990.38
2018-07-13T07:07:19.542Z,990.37
2018-07-13T07:08:19.740Z,990.40
2018-07-13T07:09:20.043Z,990.37
2018-07-13T07:10:20.184Z,990.40
2018-07-13T07:11:20.266Z,990.38
2018-07-13T07:12:20.483Z,990.39
2018-07-13T07:13:20.692Z,990.38
2018-07-13T07:14:20.892Z,990.41
2018-07-13T07:15:21.094Z,990.38
2018-07-13T07:16:21.311Z,990.34
2018-07-13T07:17:21.510Z,990.35
2018-07-13T07:18:21.730Z,990.32
2018-07-13T07:19:21.955Z,990.33
2018-07-13T07:20:22.156Z,990.32
2018-07-13T07:21:22.377Z,990.32
2018-07-13T07:22:22.577Z,990.34
2018-07-13T07:23:22.771Z,990.34
2018-07-13T07:24:23.044Z,990.28
2018-07-13T07:25:23.184Z,990.30
2018-07-13T07:26:23.380Z,990.25
2018-07-13T07:28:55.541Z,990.23
2018-07-13T07:29:55.730Z,990.23
2018-07-13T07:30:55.953Z,990.21
2018-07-13T07:31:56.155Z,990.18
2018-07-13T07:32:56.368Z,990.15
2018-07-13T07:33:56.570Z,990.14
2018-07-13T07:34:56.778Z,990.15
2018-07-13T07:35:56.994Z,990.14
2018-07-13T07:36:57.218Z,990.11
2018-07-13T07:37:57.447Z,990.11
2018-07-13T07:40:29.675Z,990.10
2018-07-13T07:41:29.864Z,990.04
2018-07-13T07:42:30.084Z,990.05
2018-07-13T07:43:30.307Z,990.05
2018-07-13T07:44:30.501Z,990.09
2018-07-13T07:45:30.737Z,990.08
2018-07-13T07:46:30.924Z,990.06
2018-07-13T07:47:31.123Z,990.03
2018-07-13T07:48:31.328Z,990.05
2018-07-13T07:49:31.545Z,990.03
2018-07-13T07:50:31.769Z,989.99
2018-07-13T07:51:31.966Z,990.03
2018-07-13T07:52:32.189Z,990.02
2018-07-13T07:53:32.424Z,990.03
2018-07-13T07:54:32.561Z,990.06
2018-07-13T07:55:32.761Z,990.02
2018-07-13T07:56:32.995Z,990.05
2018-07-13T07:57:33.294Z,990.05
2018-07-13T07:58:33.443Z,990.04
2018-07-13T07:59:33.651Z,990.05
2018-07-13T08:00:33.873Z,990.04
2018-07-13T08:01:34.096Z,990.05
2018-07-13T08:02:34.325Z,990.08
2018-07-13T08:03:34.555Z,990.09
2018-07-13T08:04:34.799Z,990.08
2018-07-13T08:05:34.980Z,990.09
2018-07-13T08:06:35.477Z,990.07
2018-07-13T08:07:35.555Z,990.07
2018-07-13T08:08:35.694Z,990.05
2018-07-13T08:09:35.896Z,990.09
2018-07-13T08:10:36.116Z,990.11
2018-07-13T08:11:36.342Z,990.11
2018-07-13T08:12:36.545Z,990.12
2018-07-13T08:13:36.944Z,990.13
2018-07-13T08:14:37.090Z,990.17
2018-07-13T08:15:37.177Z,990.14
2018-07-13T08:16:37.402Z,990.15
2018-07-13T08:17:37.620Z,990.15
2018-07-13T08:18:37.835Z,990.17
2018-07-13T08:19:38.075Z,990.22
2018-07-13T08:20:38.274Z,990.19
2018-07-13T08:21:38.476Z,990.23
2018-07-13T08:22:38.697Z,990.24
2018-07-13T08:23:38.906Z,990.23
2018-07-13T08:24:39.114Z,990.15
2018-07-13T08:25:39.314Z,990.11
2018-07-13T08:26:39.544Z,990.12
2018-07-13T08:27:39.739Z,990.09
2018-07-13T08:28:39.942Z,990.10
2018-07-13T08:29:40.148Z,990.06
2018-07-13T08:30:40.363Z,990.07
2018-07-13T08:33:12.532Z,990.00
2018-07-13T08:34:12.718Z,989.98
2018-07-13T08:35:12.942Z,990.00
2018-07-13T08:36:13.164Z,990.01
2018-07-13T08:37:13.383Z,990.05
2018-07-13T08:38:13.575Z,990.08
2018-07-13T08:39:13.774Z,990.10
2018-07-13T08:40:13.980Z,990.09
2018-07-13T08:41:14.200Z,990.10
2018-07-13T08:42:14.423Z,990.12
2018-07-13T08:43:14.636Z,990.09
2018-07-13T08:44:14.833Z,990.10
2018-07-13T08:45:15.043Z,990.09
2018-07-13T08:46:15.237Z,990.12
2018-07-13T08:47:15.455Z,990.11
2018-07-13T08:48:15.667Z,990.12
2018-07-13T08:49:15.878Z,990.11
2018-07-13T08:50:16.109Z,990.11
2018-07-13T08:51:16.358Z,990.13
2018-07-13T08:52:16.511Z,990.13
2018-07-13T08:53:16.724Z,990.15
2018-07-13T08:54:16.951Z,990.18
2018-07-13T08:55:17.148Z,990.11
2018-07-13T08:56:17.464Z,990.11
2018-07-13T08:57:17.579Z,990.08
2018-07-13T08:58:17.777Z,990.16
2018-07-13T08:59:17.985Z,990.18
2018-07-13T09:00:18.215Z,990.16
2018-07-13T09:01:18.414Z,990.12
2018-07-13T09:02:18.637Z,990.18
2018-07-13T09:03:18.821Z,990.16
2018-07-13T09:04:19.034Z,990.16
2018-07-13T09:05:19.249Z,990.19
2018-07-13T09:06:19.504Z,990.19
2018-07-13T09:07:19.686Z,990.21
2018-07-13T09:08:19.915Z,990.19
2018-07-13T09:09:20.135Z,990.26
2018-07-13T09:10:20.337Z,990.27
2018-07-13T09:11:20.553Z,990.26
2018-07-13T09:12:20.803Z,990.31
2018-07-13T09:13:21.009Z,990.30
2018-07-13T09:14:21.226Z,990.25
2018-07-13T09:15:21.441Z,990.29
2018-07-13T09:16:21.658Z,990.29
2018-07-13T09:17:21.859Z,990.27
2018-07-13T09:18:22.209Z,990.31
2018-07-13T09:19:22.296Z,990.31
2018-07-13T09:20:22.505Z,990.37
2018-07-13T09:21:22.740Z,990.36
2018-07-13T09:22:22.962Z,990.45
2018-07-13T09:23:23.148Z,990.43
2018-07-13T09:24:23.349Z,990.41
2018-07-13T09:25:23.556Z,990.42
2018-07-13T09:26:23.777Z,990.44
2018-07-13T09:27:23.987Z,990.54
2018-07-13T09:28:24.205Z,990.52
2018-07-13T09:29:24.430Z,990.61
2018-07-13T09:30:24.673Z,990.60
2018-07-13T09:31:24.868Z,990.61
2018-07-13T09:32:25.079Z,990.63
2018-07-13T09:33:25.310Z,990.66
2018-07-13T09:34:25.512Z,990.76
2018-07-13T09:35:25.757Z,990.80
2018-07-13T09:36:25.966Z,990.82
2018-07-13T09:37:26.190Z,990.74
2018-07-13T09:38:26.518Z,990.69
2018-07-13T09:39:26.652Z,990.32
2018-07-13T09:40:26.870Z,989.79
2018-07-13T09:41:27.102Z,989.75
2018-07-13T09:42:27.326Z,989.78
2018-07-13T09:43:27.529Z,989.73
2018-07-13T09:44:27.756Z,989.85
2018-07-13T09:45:27.993Z,989.76
2018-07-13T09:46:28.212Z,989.77
2018-07-13T09:49:00.450Z,989.73
2018-07-13T09:50:00.743Z,989.78
2018-07-13T09:51:00.812Z,989.73
2018-07-13T09:52:01.045Z,989.79
2018-07-13T09:53:01.271Z,989.74
2018-07-13T09:54:01.763Z,989.78
2018-07-13T09:55:01.677Z,989.77
2018-07-13T09:56:01.878Z,989.75
2018-07-13T09:57:02.091Z,989.75
2018-07-13T09:58:02.320Z,989.80
2018-07-13T09:59:02.546Z,989.83
2018-07-13T10:00:02.775Z,989.79
2018-07-13T10:01:03.002Z,989.75
2018-07-13T10:02:03.241Z,989.77
2018-07-13T10:03:03.450Z,989.72
2018-07-13T10:04:03.646Z,989.70
2018-07-13T10:05:03.883Z,989.72
2018-07-13T10:06:04.100Z,989.67
2018-07-13T10:07:04.349Z,989.66
2018-07-13T10:08:04.552Z,989.63
2018-07-13T10:09:04.780Z,989.65
2018-07-13T10:10:05.008Z,989.59
2018-07-13T10:11:05.243Z,989.57
2018-07-13T10:12:05.445Z,989.60
2018-07-13T10:13:05.654Z,989.60
2018-07-13T10:14:05.864Z,989.55
2018-07-13T10:15:06.077Z,989.53
2018-07-13T10:16:06.292Z,989.53
2018-07-13T10:17:06.520Z,989.48
2018-07-13T10:18:06.736Z,989.49
2018-07-13T10:19:06.951Z,989.45
2018-07-13T10:20:07.274Z,989.45
2018-07-13T10:21:07.391Z,989.48
2018-07-13T10:22:07.584Z,989.40
2018-07-13T10:23:07.788Z,989.42
2018-07-13T10:24:08.013Z,989.40
2018-07-13T10:25:08.250Z,989.44
2018-07-13T10:26:08.473Z,989.47
2018-07-13T10:27:08.674Z,989.48
2018-07-13T10:28:08.902Z,989.46
2018-07-13T10:29:09.126Z,989.42
2018-07-13T10:30:09.323Z,989.42
2018-07-13T10:31:09.547Z,989.37
2018-07-13T10:32:09.766Z,989.39
2018-07-13T10:33:09.966Z,989.40
2018-07-13T10:34:10.188Z,989.34
2018-07-13T10:35:10.414Z,989.40
2018-07-13T10:36:10.637Z,989.40
2018-07-13T10:37:10.855Z,989.39
2018-07-13T10:38:11.075Z,989.34
2018-07-13T10:40:43.329Z,989.21
2018-07-13T10:41:43.528Z,989.12
2018-07-13T10:42:43.744Z,988.94
2018-07-13T10:43:43.942Z,989.06
2018-07-13T10:44:44.160Z,988.91
2018-07-13T10:45:44.391Z,989.02
2018-07-13T10:46:44.619Z,988.93
2018-07-13T10:47:44.924Z,988.99
2018-07-13T10:48:45.056Z,988.94
2018-07-13T10:49:45.273Z,988.91
2018-07-13T10:50:45.514Z,988.97
2018-07-13T10:51:45.723Z,988.92
2018-07-13T10:52:45.984Z,988.87
2018-07-13T10:53:46.180Z,988.79
2018-07-13T10:54:46.422Z,988.76
2018-07-13T10:55:46.619Z,988.80
2018-07-13T10:56:46.835Z,988.79
2018-07-13T10:57:47.034Z,988.77
2018-07-13T11:00:18.913Z,988.76
2018-07-13T11:01:19.104Z,988.77
2018-07-13T11:02:19.309Z,988.73
2018-07-13T11:03:19.529Z,988.70
2018-07-13T11:04:19.748Z,988.69
2018-07-13T11:05:19.950Z,988.69
2018-07-13T11:06:20.160Z,988.75
2018-07-13T11:07:20.376Z,988.72
2018-07-13T11:08:20.585Z,988.80
2018-07-13T11:09:20.800Z,988.70
2018-07-13T11:10:21.000Z,988.74
2018-07-13T11:12:53.631Z,988.71
2018-07-13T11:13:53.595Z,988.65
2018-07-13T11:14:53.645Z,988.67
2018-07-13T11:17:25.493Z,988.64
2018-07-13T11:18:25.676Z,988.62
2018-07-13T11:19:25.883Z,988.62
2018-07-13T11:20:26.100Z,988.60
2018-07-13T11:21:26.293Z,988.61
2018-07-13T11:22:26.491Z,988.57
2018-07-13T11:23:26.680Z,988.55
2018-07-13T11:24:26.878Z,988.52
2018-07-13T11:25:27.076Z,988.57
2018-07-13T11:26:27.277Z,988.53
2018-07-13T11:27:27.474Z,988.51
2018-07-13T11:28:27.693Z,988.50
2018-07-13T11:29:27.911Z,988.48
2018-07-13T11:30:28.201Z,988.47
2018-07-13T11:31:28.287Z,988.48
2018-07-13T11:32:28.485Z,988.46
2018-07-13T11:33:28.699Z,988.47
2018-07-13T11:34:28.910Z,988.40
2018-07-13T11:35:29.135Z,988.44
2018-07-13T11:36:29.333Z,988.42
2018-07-13T11:37:29.558Z,988.41
2018-07-13T11:38:29.728Z,988.46
2018-07-13T11:39:29.922Z,988.49
2018-07-13T11:40:30.116Z,988.52
2018-07-13T11:41:30.400Z,988.47
2018-07-13T11:42:30.483Z,988.46
2018-07-13T11:43:30.701Z,988.45
2018-07-13T11:44:30.923Z,988.46
2018-07-13T11:45:31.128Z,988.52
2018-07-13T11:46:31.343Z,988.51
2018-07-13T11:47:31.558Z,988.48
2018-07-13T11:48:31.759Z,988.45
2018-07-13T11:49:31.968Z,988.47
2018-07-13T11:50:32.176Z,988.33
2018-07-13T11:51:32.389Z,988.43
2018-07-13T11:52:32.614Z,988.46
2018-07-13T11:53:32.825Z,988.44
2018-07-13T11:54:33.039Z,988.40
2018-07-13T11:55:33.255Z,988.37
2018-07-13T11:56:33.451Z,988.29
2018-07-13T11:57:33.658Z,988.36
2018-07-13T11:58:33.880Z,988.36
2018-07-13T11:59:34.072Z,988.39
2018-07-13T12:00:34.321Z,988.40
2018-07-13T12:01:34.480Z,988.32
2018-07-13T12:02:34.699Z,988.34
2018-07-13T12:03:34.889Z,988.21
2018-07-13T12:04:35.091Z,988.19
2018-07-13T12:05:35.296Z,988.24
2018-07-13T12:06:35.492Z,988.29
2018-07-13T12:07:35.734Z,988.26
2018-07-13T12:08:35.914Z,988.26
2018-07-13T12:09:36.139Z,988.28
2018-07-13T12:10:36.364Z,988.31
2018-07-13T12:11:36.569Z,988.17
2018-07-13T12:12:36.824Z,988.19
2018-07-13T12:13:36.973Z,988.20
2018-07-13T12:16:09.191Z,988.21
2018-07-13T12:17:09.376Z,988.32
2018-07-13T12:18:09.590Z,988.30
2018-07-13T12:19:09.813Z,988.21
2018-07-13T12:20:10.015Z,988.30
2018-07-13T12:21:10.209Z,988.21
2018-07-13T12:22:10.414Z,988.30
2018-07-13T12:23:10.645Z,988.34
2018-07-13T12:24:10.832Z,988.30
2018-07-13T12:25:11.032Z,988.33
2018-07-13T12:26:11.237Z,988.32
2018-07-13T12:27:11.429Z,988.34
2018-07-13T12:28:11.615Z,988.31
2018-07-13T12:29:11.841Z,988.37
2018-07-13T12:30:12.049Z,988.26
2018-07-13T12:31:12.248Z,988.25
2018-07-13T12:32:12.505Z,988.26
2018-07-13T12:34:44.668Z,988.26
2018-07-13T12:35:44.726Z,988.25
2018-07-13T12:36:44.924Z,988.27
2018-07-13T12:37:45.134Z,988.26
2018-07-13T12:38:45.351Z,988.22
2018-07-13T12:39:45.645Z,988.20
2018-07-13T12:40:45.782Z,988.20
2018-07-13T12:41:46.004Z,988.18
2018-07-13T12:42:46.214Z,988.19
2018-07-13T12:43:46.438Z,988.18
2018-07-13T12:44:47.253Z,988.18
2018-07-13T12:45:46.833Z,988.17
2018-07-13T12:46:47.043Z,988.17
2018-07-13T12:47:47.234Z,988.17
2018-07-13T12:48:47.449Z,988.18
2018-07-13T12:49:47.662Z,988.16
2018-07-13T12:50:47.863Z,988.15
2018-07-13T12:51:48.074Z,988.15
2018-07-13T12:52:48.293Z,988.16
2018-07-13T12:53:48.566Z,988.18
2018-07-13T12:54:48.712Z,988.20
2018-07-13T12:55:48.921Z,988.24
2018-07-13T12:56:49.119Z,988.22